createdAt,value
2019-05-17T00:00:47.505Z,13.70
2019-05-17T00:03:17.906Z,13.80
2019-05-17T00:05:46.595Z,14.38
2019-05-17T00:08:16.394Z,12.75
2019-05-17T00:10:46.399Z,14.93
2019-05-17T00:13:14.680Z,14.65
2019-05-17T00:15:43.562Z,13.72
2019-05-17T00:18:11.157Z,14.28
2019-05-17T00:20:39.057Z,13.68
2019-05-17T00:23:07.191Z,13.03
2019-05-17T00:25:37.010Z,13.75
2019-05-17T00:28:07.281Z,15.03
2019-05-17T00:30:37.377Z,12.85
2019-05-17T00:33:07.483Z,13.53
2019-05-17T00:35:37.345Z,13.65
2019-05-17T00:38:06.581Z,13.35
2019-05-17T00:40:36.563Z,13.88
2019-05-17T00:43:07.042Z,12.75
2019-05-17T00:45:37.761Z,13.38
2019-05-17T00:48:06.490Z,13.22
2019-05-17T00:50:37.526Z,12.45
2019-05-17T00:53:06.926Z,14.25
2019-05-17T00:55:36.247Z,13.65
2019-05-17T00:58:06.859Z,13.85
2019-05-17T01:00:37.626Z,13.53
2019-05-17T01:03:07.010Z,14.13
2019-05-17T01:05:37.204Z,13.60
2019-05-17T01:08:07.336Z,13.83
2019-05-17T01:10:36.785Z,12.78
2019-05-17T01:13:06.752Z,13.20
2019-05-17T01:15:37.252Z,14.33
2019-05-17T01:18:07.147Z,13.72
2019-05-17T01:20:36.977Z,14.73
2019-05-17T01:23:07.286Z,13.10
2019-05-17T01:25:36.744Z,12.68
2019-05-17T01:28:07.274Z,12.80
2019-05-17T01:30:37.434Z,12.47
2019-05-17T01:33:06.877Z,14.35
2019-05-17T01:35:37.461Z,12.95
2019-05-17T01:38:09.900Z,12.70
2019-05-17T01:40:37.584Z,13.65
2019-05-17T01:43:07.560Z,14.43
2019-05-17T01:45:37.864Z,13.72
2019-05-17T01:48:07.408Z,12.50
2019-05-17T01:50:37.335Z,14.05
2019-05-17T01:53:07.385Z,11.93
2019-05-17T01:55:37.199Z,13.95
2019-05-17T01:58:07.272Z,13.40
2019-05-17T02:00:38.136Z,12.78
2019-05-17T02:03:07.065Z,12.88
2019-05-17T02:05:37.367Z,13.32
2019-05-17T02:08:06.587Z,15.10
2019-05-17T02:10:37.285Z,13.35
2019-05-17T02:13:06.610Z,13.83
2019-05-17T02:15:33.910Z,12.88
2019-05-17T02:18:07.013Z,14.13
2019-05-17T02:20:36.979Z,13.72
2019-05-17T02:23:07.008Z,13.95
2019-05-17T02:25:37.237Z,13.48
2019-05-17T02:28:05.369Z,12.68
2019-05-17T02:30:33.944Z,13.83
2019-05-17T02:33:04.021Z,12.15
2019-05-17T02:35:33.617Z,13.90
2019-05-17T02:38:02.806Z,12.75
2019-05-17T02:40:33.930Z,13.00
2019-05-17T02:43:03.145Z,13.03
2019-05-17T02:45:33.385Z,14.73
2019-05-17T02:48:03.900Z,14.63
2019-05-17T02:50:33.123Z,13.80
2019-05-17T02:53:04.723Z,11.38
2019-05-17T02:55:32.920Z,13.43
2019-05-17T02:58:03.872Z,13.80
2019-05-17T03:00:34.048Z,14.95
2019-05-17T03:03:03.373Z,14.00
2019-05-17T03:05:33.808Z,14.28
2019-05-17T03:08:04.251Z,14.75
2019-05-17T03:10:33.581Z,13.55
2019-05-17T03:13:04.009Z,14.25
2019-05-17T03:15:32.955Z,14.03
2019-05-17T03:18:03.926Z,13.83
2019-05-17T03:20:32.834Z,14.58
2019-05-17T03:23:03.926Z,14.53
2019-05-17T03:25:33.027Z,14.33
2019-05-17T03:28:02.548Z,13.90
2019-05-17T03:30:35.561Z,13.85
2019-05-17T03:33:06.192Z,14.33
2019-05-17T03:35:36.573Z,15.10
2019-05-17T03:37:59.800Z,13.55
2019-05-17T03:40:58.535Z,14.13
2019-05-17T03:43:02.534Z,14.15
2019-05-17T03:45:29.671Z,15.05
2019-05-17T03:47:57.411Z,15.98
2019-05-17T03:50:25.534Z,13.72
2019-05-17T03:52:53.811Z,13.00
2019-05-17T03:55:23.482Z,13.85
2019-05-17T03:57:53.296Z,13.95
2019-05-17T04:00:23.282Z,13.00
2019-05-17T04:02:53.403Z,13.58
2019-05-17T04:05:22.629Z,13.95
2019-05-17T04:07:49.475Z,13.65
2019-05-17T04:10:17.405Z,13.45
2019-05-17T04:12:45.507Z,15.50
2019-05-17T04:15:15.352Z,13.90
2019-05-17T04:17:44.302Z,13.22
2019-05-17T04:20:13.677Z,14.00
2019-05-17T04:22:44.146Z,13.78
2019-05-17T04:25:13.807Z,12.58
2019-05-17T04:27:43.600Z,14.30
2019-05-17T04:30:14.320Z,13.25
2019-05-17T04:32:44.114Z,13.48
2019-05-17T04:35:13.158Z,12.47
2019-05-17T04:37:44.757Z,13.60
2019-05-17T04:40:14.281Z,14.18
2019-05-17T04:42:43.921Z,14.83
2019-05-17T04:45:14.268Z,15.60
2019-05-17T04:47:44.183Z,13.72
2019-05-17T04:50:14.210Z,15.38
2019-05-17T04:52:43.710Z,14.98
2019-05-17T04:55:13.573Z,14.60
2019-05-17T04:57:43.861Z,14.78
2019-05-17T05:00:15.036Z,13.32
2019-05-17T05:02:44.324Z,14.25
2019-05-17T05:05:14.242Z,13.15
2019-05-17T05:07:45.546Z,12.63
2019-05-17T05:10:15.289Z,11.93
2019-05-17T05:12:44.229Z,12.37
2019-05-17T05:15:13.235Z,12.37
2019-05-17T05:17:43.101Z,15.08
2019-05-17T05:20:15.547Z,12.82
2019-05-17T05:22:43.571Z,13.70
2019-05-17T05:25:21.573Z,13.15
2019-05-17T05:27:49.109Z,13.50
2019-05-17T05:30:17.129Z,12.58
2019-05-17T05:32:44.876Z,13.00
2019-05-17T05:35:13.233Z,12.58
2019-05-17T05:37:42.388Z,11.97
2019-05-17T05:40:12.711Z,11.60
2019-05-17T05:42:42.647Z,14.23
2019-05-17T05:45:14.552Z,13.08
2019-05-17T05:47:42.782Z,14.15
2019-05-17T05:50:12.481Z,13.50
2019-05-17T05:52:42.303Z,14.03
2019-05-17T05:55:12.221Z,11.95
2019-05-17T05:57:42.095Z,13.25
2019-05-17T06:00:12.675Z,12.50
2019-05-17T06:02:41.898Z,12.58
2019-05-17T06:05:14.648Z,11.45
2019-05-17T06:07:41.820Z,12.53
2019-05-17T06:10:12.874Z,12.10
2019-05-17T06:12:43.486Z,11.85
2019-05-17T06:15:12.526Z,11.65
2019-05-17T06:17:42.674Z,11.85
2019-05-17T06:20:13.442Z,13.18
2019-05-17T06:22:42.851Z,11.63
2019-05-17T06:25:15.143Z,12.07
2019-05-17T06:27:43.672Z,12.20
2019-05-17T06:30:15.217Z,12.80
2019-05-17T06:32:43.730Z,11.48
2019-05-17T06:35:12.693Z,10.78
2019-05-17T06:37:42.711Z,10.55
2019-05-17T06:40:13.090Z,11.35
2019-05-17T06:42:44.949Z,12.35
2019-05-17T06:45:12.496Z,10.05
2019-05-17T06:47:42.608Z,11.03
2019-05-17T06:50:14.365Z,9.90
2019-05-17T06:52:43.448Z,9.85
2019-05-17T06:55:12.876Z,11.60
2019-05-17T06:57:43.386Z,10.93
2019-05-17T07:00:19.503Z,10.70
2019-05-17T07:02:42.158Z,10.90
2019-05-17T07:05:15.692Z,10.93
2019-05-17T07:07:43.305Z,10.53
2019-05-17T07:10:12.599Z,10.40
2019-05-17T07:12:54.923Z,10.65
2019-05-17T07:15:13.359Z,11.73
2019-05-17T07:17:41.268Z,10.70
2019-05-17T07:20:10.288Z,10.77
2019-05-17T07:22:40.930Z,10.70
2019-05-17T07:25:10.881Z,10.20
2019-05-17T07:27:45.762Z,10.40
2019-05-17T07:30:12.885Z,10.00
2019-05-17T07:32:40.975Z,10.90
2019-05-17T07:35:10.653Z,10.07
2019-05-17T07:37:39.709Z,10.30
2019-05-17T07:40:10.826Z,10.87
2019-05-17T07:42:39.745Z,12.40
2019-05-17T07:45:10.195Z,12.57
2019-05-17T07:47:40.380Z,12.57
2019-05-17T07:50:11.403Z,11.67
2019-05-17T07:52:39.915Z,19.67
2019-05-17T07:55:11.030Z,15.73
2019-05-17T07:57:41.147Z,12.30
2019-05-17T08:00:10.584Z,11.17
2019-05-17T08:02:40.183Z,12.27
2019-05-17T08:05:10.280Z,11.77
2019-05-17T08:07:40.274Z,11.65
2019-05-17T08:10:10.998Z,10.10
2019-05-17T08:12:40.895Z,11.37
2019-05-17T08:15:10.932Z,11.75
2019-05-17T08:17:39.648Z,10.85
2019-05-17T08:20:10.091Z,11.55
2019-05-17T08:22:39.854Z,12.55
2019-05-17T08:25:10.140Z,11.12
2019-05-17T08:54:52.534Z,12.70
2019-05-17T08:57:20.713Z,13.60
2019-05-17T08:59:49.740Z,11.83
2019-05-17T09:02:29.793Z,12.60
2019-05-17T09:04:57.276Z,12.00
2019-05-17T09:07:24.888Z,12.30
2019-05-17T09:09:53.867Z,13.13
2019-05-17T09:12:22.269Z,12.10
2019-05-17T09:14:49.992Z,12.20
2019-05-17T09:17:19.368Z,11.30
2019-05-17T09:19:47.714Z,11.07
2019-05-17T09:22:15.651Z,12.27
2019-05-17T09:24:43.507Z,10.53
2019-05-17T09:27:11.352Z,11.00
2019-05-17T09:29:40.343Z,11.53
2019-05-17T09:32:09.522Z,11.17
2019-05-17T09:34:37.351Z,10.97
2019-05-17T09:37:05.294Z,11.70
2019-05-17T09:39:33.198Z,13.30
2019-05-17T09:42:01.101Z,10.20
2019-05-17T09:44:29.958Z,11.13
2019-05-17T09:46:59.490Z,11.40
2019-05-17T09:49:29.806Z,10.80
2019-05-17T09:51:57.275Z,10.97
2019-05-17T09:54:38.978Z,10.50
2019-05-17T09:56:54.895Z,10.50
2019-05-17T09:59:22.500Z,11.00
2019-05-17T10:01:50.113Z,11.20
2019-05-17T10:04:19.914Z,10.40
2019-05-17T10:06:51.209Z,11.17
2019-05-17T10:09:19.639Z,12.50
2019-05-17T10:11:50.453Z,12.57
2019-05-17T10:14:27.780Z,10.87
2019-05-17T10:16:50.756Z,11.23
2019-05-17T10:19:23.513Z,11.87
2019-05-17T10:21:50.677Z,12.20
2019-05-17T10:24:21.290Z,12.13
2019-05-17T10:26:49.866Z,13.47
2019-05-17T10:29:17.876Z,11.97
2019-05-17T10:31:50.317Z,11.37
2019-05-17T10:34:20.212Z,9.10
2019-05-17T10:36:50.539Z,10.60
2019-05-17T10:39:19.383Z,10.17
2019-05-17T10:41:47.037Z,11.90
2019-05-17T10:44:15.284Z,12.67
2019-05-17T10:46:43.759Z,10.63
2019-05-17T10:49:11.329Z,9.40
2019-05-17T10:51:40.260Z,10.53
2019-05-17T10:54:09.564Z,10.50
2019-05-17T10:56:37.606Z,9.57
2019-05-17T10:59:05.473Z,9.67
2019-05-17T11:01:33.049Z,8.93
2019-05-17T11:04:00.815Z,9.10
2019-05-17T11:06:30.193Z,9.50
2019-05-17T11:09:05.535Z,11.00
2019-05-17T11:11:33.142Z,10.50
2019-05-17T11:14:00.920Z,10.50
2019-05-17T11:16:30.781Z,14.10
2019-05-17T11:18:58.415Z,22.27
2019-05-17T11:21:26.417Z,8.60
2019-05-17T11:23:54.048Z,10.20
2019-05-17T11:26:21.750Z,9.70
2019-05-17T11:28:49.349Z,10.47
2019-05-17T11:31:17.068Z,11.70
2019-05-17T11:33:45.019Z,9.53
2019-05-17T11:36:12.860Z,10.30
2019-05-17T11:38:40.520Z,11.70
2019-05-17T11:41:20.389Z,10.80
2019-05-17T11:43:38.996Z,12.53
2019-05-17T11:46:07.873Z,11.07
2019-05-17T11:48:35.481Z,10.53
2019-05-17T11:51:03.288Z,10.97
2019-05-17T11:53:32.040Z,10.90
2019-05-17T11:55:59.642Z,10.27
2019-05-17T11:58:29.432Z,11.27
2019-05-17T12:00:57.265Z,12.47
2019-05-17T12:03:26.397Z,9.00
2019-05-17T12:05:54.225Z,8.90
2019-05-17T12:08:23.855Z,10.63
2019-05-17T12:10:51.732Z,9.00
2019-05-17T12:13:21.337Z,11.27
2019-05-17T12:15:48.912Z,9.33
2019-05-17T12:18:20.424Z,9.63
2019-05-17T12:20:51.086Z,28.70
2019-05-17T12:23:19.077Z,11.50
2019-05-17T12:25:46.970Z,10.50
2019-05-17T12:28:16.863Z,9.10
2019-05-17T12:30:45.584Z,9.03
2019-05-17T12:33:13.154Z,13.97
2019-05-17T12:35:40.751Z,16.30
2019-05-17T12:38:10.390Z,10.50
2019-05-17T12:40:38.975Z,9.60
2019-05-17T12:43:06.587Z,9.70
2019-05-17T12:45:34.560Z,8.20
2019-05-17T12:48:03.359Z,9.33
2019-05-17T12:50:31.036Z,9.13
2019-05-17T12:52:58.886Z,9.77
2019-05-17T12:55:26.708Z,9.77
2019-05-17T12:57:56.647Z,9.87
2019-05-17T13:00:25.190Z,8.67
2019-05-17T13:02:52.954Z,9.17
2019-05-17T13:05:20.592Z,9.77
2019-05-17T13:07:49.359Z,9.17
2019-05-17T13:10:17.259Z,9.30
2019-05-17T13:12:45.879Z,9.37
2019-05-17T13:15:13.939Z,8.57
2019-05-17T13:17:41.691Z,9.20
2019-05-17T13:20:10.300Z,11.03
2019-05-17T13:22:38.149Z,11.20
2019-05-17T13:25:06.826Z,9.50
2019-05-17T13:27:38.532Z,8.40
2019-05-17T13:30:05.174Z,7.97
2019-05-17T13:32:32.762Z,8.23
2019-05-17T13:35:01.525Z,8.47
2019-05-17T13:37:29.481Z,8.23
2019-05-17T13:39:57.317Z,8.87
2019-05-17T13:42:25.277Z,8.27
2019-05-17T13:44:55.021Z,8.00
2019-05-17T13:47:22.999Z,7.60
2019-05-17T13:49:53.411Z,7.73
2019-05-17T13:52:21.039Z,7.30
2019-05-17T13:54:49.120Z,7.10
2019-05-17T13:57:16.763Z,6.93
2019-05-17T13:59:44.713Z,8.90
2019-05-17T14:02:12.714Z,6.97
2019-05-17T14:04:40.436Z,6.70
2019-05-17T14:07:08.384Z,7.00
2019-05-17T14:09:36.010Z,6.33
2019-05-17T14:12:03.908Z,7.73
2019-05-17T14:14:31.539Z,7.43
2019-05-17T14:17:02.147Z,6.60
2019-05-17T14:19:29.769Z,6.67
2019-05-17T14:21:57.346Z,6.43
2019-05-17T14:24:25.983Z,8.77
2019-05-17T14:26:53.539Z,7.80
2019-05-17T14:29:22.465Z,7.23
2019-05-17T14:31:50.083Z,8.53
2019-05-17T14:34:20.697Z,6.73
2019-05-17T14:36:48.321Z,6.53
2019-05-17T14:39:15.929Z,7.20
2019-05-17T14:41:46.671Z,6.70
2019-05-17T14:44:14.535Z,7.22
2019-05-17T14:46:42.146Z,7.47
2019-05-17T14:49:10.160Z,7.53
2019-05-17T14:51:37.735Z,8.38
2019-05-17T14:54:06.362Z,7.33
2019-05-17T14:57:04.930Z,7.87
2019-05-17T14:59:35.392Z,7.05
2019-05-17T15:02:04.927Z,7.60
2019-05-17T15:04:33.996Z,7.65
2019-05-17T15:07:02.151Z,7.70
2019-05-17T15:09:31.142Z,7.40
2019-05-17T15:11:59.211Z,7.75
2019-05-17T15:14:29.528Z,7.78
2019-05-17T15:16:57.044Z,7.03
2019-05-17T15:19:24.854Z,8.33
2019-05-17T15:21:59.436Z,8.55
2019-05-17T15:24:30.738Z,8.28
2019-05-17T15:27:05.441Z,8.58
2019-05-17T15:29:30.567Z,9.18
2019-05-17T15:32:00.730Z,10.03
2019-05-17T15:34:28.483Z,8.35
2019-05-17T15:36:56.602Z,8.50
2019-05-17T15:39:25.786Z,9.75
2019-05-17T15:41:54.487Z,8.93
2019-05-17T15:44:22.313Z,9.00
2019-05-17T15:46:50.545Z,7.80
2019-05-17T15:49:18.459Z,9.35
2019-05-17T15:51:46.371Z,9.75
2019-05-17T15:54:16.653Z,9.78
2019-05-17T15:56:45.007Z,9.83
2019-05-17T15:59:12.789Z,9.13
2019-05-17T16:01:40.709Z,9.68
2019-05-17T16:04:08.965Z,10.05
2019-05-17T16:06:36.834Z,10.65
2019-05-17T16:09:06.059Z,10.08
2019-05-17T16:11:33.807Z,10.82
2019-05-17T16:14:02.159Z,10.70
2019-05-17T16:16:30.678Z,11.73
2019-05-17T16:18:58.731Z,11.60
2019-05-17T16:21:27.693Z,14.45
2019-05-17T16:23:55.301Z,16.35
2019-05-17T16:26:23.444Z,16.73
2019-05-17T16:28:51.061Z,14.93
2019-05-17T16:31:21.033Z,13.85
2019-05-17T16:33:50.966Z,12.33
2019-05-17T16:36:21.679Z,15.10
2019-05-17T16:38:49.658Z,12.13
2019-05-17T16:41:18.428Z,7.85
2019-05-17T16:43:47.062Z,11.10
2019-05-17T16:46:14.805Z,11.25
2019-05-17T16:48:42.403Z,11.12
2019-05-17T16:51:12.017Z,13.08
2019-05-17T16:53:39.945Z,12.33
2019-05-17T16:56:08.081Z,10.15
2019-05-17T16:58:35.644Z,8.80
2019-05-17T17:01:04.431Z,7.55
2019-05-17T17:03:43.882Z,10.00
2019-05-17T17:06:05.384Z,9.28
2019-05-17T17:08:34.340Z,7.00
2019-05-17T17:11:02.411Z,7.60
2019-05-17T17:13:33.055Z,9.73
2019-05-17T17:16:00.021Z,9.50
2019-05-17T17:18:28.789Z,8.83
2019-05-17T17:20:57.347Z,9.40
2019-05-17T17:23:25.269Z,8.58
2019-05-17T17:25:56.053Z,8.28
2019-05-17T17:28:25.607Z,8.13
2019-05-17T17:30:53.727Z,9.70
2019-05-17T17:33:22.949Z,7.75
2019-05-17T17:35:55.698Z,8.15
2019-05-17T17:38:23.859Z,8.80
2019-05-17T17:40:52.208Z,9.13
2019-05-17T17:43:20.872Z,10.10
2019-05-17T17:45:48.831Z,10.98
2019-05-17T17:48:20.316Z,10.23
2019-05-17T17:50:54.621Z,9.68
2019-05-17T17:53:22.217Z,10.23
2019-05-17T17:55:51.866Z,9.38
2019-05-17T17:58:34.508Z,11.95
2019-05-17T18:01:02.352Z,9.50
2019-05-17T18:03:30.066Z,10.40
2019-05-17T18:05:58.707Z,9.55
2019-05-17T18:08:26.555Z,7.20
2019-05-17T18:10:54.164Z,7.90
2019-05-17T18:13:22.010Z,7.20
2019-05-17T18:15:51.133Z,9.15
2019-05-17T18:18:18.867Z,8.50
2019-05-17T18:20:48.761Z,7.37
2019-05-17T18:23:22.550Z,9.40
2019-05-17T18:25:46.573Z,10.65
2019-05-17T18:28:14.175Z,9.75
2019-05-17T18:30:46.801Z,11.20
2019-05-17T18:33:14.641Z,11.20
2019-05-17T18:35:44.106Z,11.40
2019-05-17T18:38:15.261Z,13.45
2019-05-17T18:40:44.016Z,11.55
2019-05-17T18:43:11.870Z,13.58
2019-05-17T18:45:39.697Z,12.73
2019-05-17T18:48:07.815Z,13.78
2019-05-17T18:50:35.611Z,13.58
2019-05-17T18:53:04.088Z,12.53
2019-05-17T18:55:33.311Z,13.90
2019-05-17T18:58:01.567Z,13.85
2019-05-17T19:00:30.709Z,14.25
2019-05-17T19:02:58.832Z,14.10
2019-05-17T19:05:27.746Z,13.53
2019-05-17T19:07:56.681Z,14.15
2019-05-17T19:10:24.665Z,12.95
2019-05-17T19:12:52.436Z,11.90
2019-05-17T19:15:21.602Z,13.22
2019-05-17T19:17:49.369Z,13.13
2019-05-17T19:20:17.563Z,12.70
2019-05-17T19:22:45.564Z,12.82
2019-05-17T19:25:15.295Z,14.13
2019-05-17T19:27:43.267Z,13.65
2019-05-17T19:30:12.050Z,14.18
2019-05-17T19:32:40.169Z,13.10
2019-05-17T19:35:08.286Z,13.40
2019-05-17T19:37:36.402Z,12.35
2019-05-17T19:40:05.917Z,11.78
2019-05-17T19:42:36.580Z,12.68
2019-05-17T19:45:05.225Z,12.75
2019-05-17T19:47:33.232Z,12.75
2019-05-17T19:50:00.852Z,12.85
2019-05-17T19:52:28.451Z,11.43
2019-05-17T19:54:56.049Z,12.73
2019-05-17T19:57:23.779Z,12.25
2019-05-17T19:59:51.431Z,16.30
2019-05-17T20:02:19.158Z,16.42
2019-05-17T20:04:47.394Z,18.50
2019-05-17T20:07:15.272Z,19.42
2019-05-17T20:09:42.899Z,21.87
2019-05-17T20:12:10.602Z,21.57
2019-05-17T20:14:39.665Z,21.82
2019-05-17T20:17:07.331Z,21.60
2019-05-17T20:19:34.903Z,21.70
2019-05-17T20:22:02.472Z,23.25
2019-05-17T20:24:30.464Z,24.40
2019-05-17T20:26:58.345Z,28.67
2019-05-17T20:29:26.064Z,26.27
2019-05-17T20:31:53.947Z,26.00
2019-05-17T20:34:23.448Z,25.90
2019-05-17T20:37:03.317Z,25.45
2019-05-17T20:39:32.289Z,24.65
2019-05-17T20:41:59.919Z,27.37
2019-05-17T20:44:28.856Z,25.40
2019-05-17T20:46:56.487Z,25.45
2019-05-17T20:49:24.164Z,25.25
2019-05-17T20:51:52.051Z,25.60
2019-05-17T20:54:21.903Z,25.32
2019-05-17T20:56:49.514Z,26.37
2019-05-17T20:59:18.251Z,23.95
2019-05-17T21:01:45.888Z,24.45
2019-05-17T21:04:13.816Z,22.67
2019-05-17T21:06:41.658Z,22.40
2019-05-17T21:09:09.754Z,21.35
2019-05-17T21:11:37.357Z,20.68
2019-05-17T21:14:05.355Z,21.30
2019-05-17T21:16:32.952Z,21.55
2019-05-17T21:19:00.564Z,22.77
2019-05-17T21:21:28.469Z,22.17
2019-05-17T21:23:56.303Z,22.73
2019-05-17T21:26:24.225Z,22.62
2019-05-17T21:28:52.186Z,22.77
2019-05-17T21:31:19.921Z,24.60
2019-05-17T21:33:47.560Z,21.70
2019-05-17T21:36:15.176Z,22.45
2019-05-17T21:38:44.150Z,23.83
2019-05-17T21:41:11.848Z,23.15
2019-05-17T21:43:39.461Z,21.97
2019-05-17T21:46:07.186Z,21.87
2019-05-17T21:48:37.446Z,22.15
2019-05-17T21:51:05.715Z,21.45
2019-05-17T21:53:33.727Z,19.73
2019-05-17T21:56:05.152Z,20.17
2019-05-17T21:58:38.855Z,19.23
2019-05-17T22:01:14.950Z,20.68
2019-05-17T22:03:43.993Z,19.90
2019-05-17T22:06:12.224Z,20.35
2019-05-17T22:08:42.230Z,21.15
2019-05-17T22:11:10.410Z,21.00
2019-05-17T22:13:38.147Z,20.82
2019-05-17T22:16:18.451Z,20.05
2019-05-17T22:18:35.829Z,20.57
2019-05-17T22:21:04.612Z,19.92
2019-05-17T22:23:32.239Z,19.32
2019-05-17T22:26:03.086Z,18.65
2019-05-17T22:28:30.686Z,18.82
2019-05-17T22:31:00.079Z,19.35
2019-05-17T22:33:27.904Z,18.48
2019-05-17T22:35:58.176Z,19.45
2019-05-17T22:38:26.310Z,19.60
2019-05-17T22:40:55.916Z,18.42
2019-05-17T22:43:24.923Z,20.48
2019-05-17T22:45:55.046Z,19.92
2019-05-17T22:48:22.663Z,22.45
2019-05-17T22:50:54.347Z,22.90
2019-05-17T22:53:22.085Z,26.68
2019-05-17T22:55:50.053Z,27.35
2019-05-17T22:58:18.270Z,28.35
2019-05-17T23:00:45.979Z,27.07
2019-05-17T23:03:14.041Z,28.05
2019-05-17T23:05:43.923Z,26.52
2019-05-17T23:08:11.820Z,26.87
2019-05-17T23:10:39.808Z,27.52
2019-05-17T23:13:09.322Z,26.82
2019-05-17T23:15:59.616Z,27.37
2019-05-17T23:18:27.694Z,27.50
2019-05-17T23:20:56.424Z,27.32
2019-05-17T23:26:12.766Z,29.02
2019-05-17T23:28:40.972Z,26.93
2019-05-17T23:31:10.948Z,28.32
2019-05-17T23:33:38.550Z,26.80
2019-05-17T23:36:07.147Z,25.92
2019-05-17T23:38:35.282Z,27.30
2019-05-17T23:41:03.248Z,25.60
2019-05-17T23:43:32.070Z,24.87
2019-05-17T23:45:59.777Z,26.10
2019-05-17T23:48:30.643Z,25.80
2019-05-17T23:50:58.396Z,24.87
2019-05-17T23:53:26.851Z,25.35
2019-05-17T23:55:55.453Z,25.40
2019-05-17T23:58:26.949Z,24.47
